Time;durP1;ratioP1;P1;durP2;ratioP2;P2;SDS_P1;SDS_P2;PMS_P1;PMS_P2;Temp;Humidity;BMP_temperature;BMP_pressure;BME280_temperature;BME280_humidity;BME280_pressure;Samples;Min_cycle;Max_cycle;Signal;HPM_P1;HPM_P2
2022/07/27 00:04:26;;;;;;;1.20;1.20;;;;;;;13.69;79.79;102062.50;10377775;28;20366;-77
2022/07/27 00:09:27;;;;;;;2.10;1.17;;;;;;;13.62;80.09;102062.41;10377517;28;20046;-77
2022/07/27 00:14:27;;;;;;;1.38;1.27;;;;;;;13.60;80.20;102067.22;10376078;28;20390;-77
2022/07/27 00:19:27;;;;;;;1.85;1.25;;;;;;;13.59;80.26;102060.09;10376524;28;20049;-77
2022/07/27 00:24:28;;;;;;;5.22;1.95;;;;;;;13.57;80.75;102070.31;10384935;28;20042;-77
2022/07/27 00:29:28;;;;;;;3.38;1.85;;;;;;;13.54;80.86;102065.25;10384738;28;20113;-77
2022/07/27 00:34:29;;;;;;;1.95;1.77;;;;;;;13.58;80.70;102063.81;10376413;28;20192;-77
2022/07/27 00:39:29;;;;;;;0.75;0.75;;;;;;;13.62;80.82;102058.84;10374269;28;20148;-77
2022/07/27 00:44:31;;;;;;;3.30;1.65;;;;;;;13.57;81.00;102056.69;10375428;28;20042;-78
2022/07/27 00:49:31;;;;;;;1.20;1.13;;;;;;;13.54;81.21;102056.22;10374001;28;20034;-77
2022/07/27 00:54:32;;;;;;;1.52;1.08;;;;;;;13.58;81.41;102063.81;10375027;28;20036;-78
2022/07/27 00:59:32;;;;;;;5.20;1.95;;;;;;;13.60;81.38;102050.88;10358039;28;20458;-79
2022/07/27 01:04:33;;;;;;;12.57;1.70;;;;;;;13.61;81.48;102055.28;10374271;28;20057;-77
2022/07/27 01:14:52;;;;;;;0.77;0.77;;;;;;;13.58;81.54;102052.94;10375208;28;20468;-77
2022/07/27 01:19:52;;;;;;;2.05;1.60;;;;;;;13.52;82.33;102048.25;10374906;28;20129;-77
2022/07/27 01:24:53;;;;;;;1.88;1.20;;;;;;;13.50;82.58;102042.16;10374990;28;20034;-77
2022/07/27 01:29:53;;;;;;;3.60;1.70;;;;;;;13.48;81.85;102053.22;10374509;28;20041;-77
2022/07/27 01:34:54;;;;;;;5.63;1.75;;;;;;;13.32;82.00;102052.56;10380457;28;20037;-77
2022/07/27 01:39:54;;;;;;;3.92;2.00;;;;;;;13.17;81.70;102047.94;10386895;28;20030;-78
2022/07/27 01:44:54;;;;;;;4.55;1.52;;;;;;;13.03;82.06;102040.63;10404695;28;20056;-78
2022/07/27 01:49:55;;;;;;;14.35;1.98;;;;;;;12.90;82.26;102035.81;10382908;28;20038;-77
2022/07/27 01:54:55;;;;;;;1.23;1.17;;;;;;;12.83;82.35;102034.00;10381690;28;20034;-77
2022/07/27 01:59:55;;;;;;;5.35;1.88;;;;;;;12.76;82.48;102036.63;10382300;28;20500;-78
2022/07/27 02:04:56;;;;;;;3.58;1.40;;;;;;;12.73;82.89;102040.56;10382191;28;20424;-77
2022/07/27 02:09:56;;;;;;;4.43;1.80;;;;;;;12.75;82.48;102035.78;10382018;28;20030;-77
2022/07/27 02:14:56;;;;;;;4.07;1.02;;;;;;;12.75;82.51;102033.06;10381820;28;20045;-77
2022/07/27 02:19:57;;;;;;;1.23;1.23;;;;;;;12.70;82.94;102031.91;10393566;28;20088;-78
2022/07/27 02:24:57;;;;;;;2.35;1.55;;;;;;;12.70;82.37;102029.19;10381537;28;20065;-77
2022/07/27 02:29:58;;;;;;;6.85;1.25;;;;;;;12.67;82.49;102032.31;10381052;28;20061;-77
2022/07/27 02:34:58;;;;;;;3.35;2.00;;;;;;;12.55;82.41;102026.47;10379522;28;20038;-77
2022/07/27 02:39:59;;;;;;;4.78;2.13;;;;;;;12.48;82.52;102030.94;10380880;28;20037;-77
2022/07/27 02:44:59;;;;;;;3.92;1.42;;;;;;;12.44;82.58;102032.31;10380237;28;20038;-77
2022/07/27 02:50:03;;;;;;;1.77;1.60;;;;;;;12.35;82.26;102028.84;10379537;28;20042;-77
2022/07/27 02:55:04;;;;;;;5.47;2.00;;;;;;;12.37;83.08;102026.75;10381693;28;20034;-78
2022/07/27 03:00:05;;;;;;;1.17;1.17;;;;;;;12.52;83.35;102032.25;10395203;28;20054;-77
2022/07/27 03:05:06;;;;;;;2.20;1.55;;;;;;;12.64;83.46;102022.66;10382178;28;20026;-77
2022/07/27 03:10:07;;;;;;;2.78;1.48;;;;;;;12.84;83.71;102022.13;10362040;28;20076;-77
2022/07/27 03:15:08;;;;;;;3.08;2.00;;;;;;;12.97;83.70;102023.16;10379236;28;20065;-78
2022/07/27 03:20:09;;;;;;;3.13;1.00;;;;;;;13.13;84.14;102016.72;10378986;28;20029;-77
2022/07/27 03:25:10;;;;;;;3.40;1.10;;;;;;;13.42;84.59;102021.31;10380136;28;20029;-77
2022/07/27 03:30:11;;;;;;;1.35;1.23;;;;;;;13.63;85.54;102017.00;10378871;28;20440;-78
2022/07/27 03:35:11;;;;;;;10.77;1.65;;;;;;;13.86;84.78;102022.28;10395494;28;20092;-77
2022/07/27 03:40:12;;;;;;;2.53;1.42;;;;;;;14.01;84.43;102020.38;10378302;28;20038;-77
2022/07/27 03:45:12;;;;;;;5.70;1.52;;;;;;;14.13;85.12;102023.41;10378594;28;20084;-77
2022/07/27 03:50:13;;;;;;;0.98;0.98;;;;;;;14.24;84.87;102024.81;10378640;28;20062;-78
2022/07/27 03:55:13;;;;;;;2.45;1.05;;;;;;;14.31;84.33;102026.53;10382294;28;20034;-78
2022/07/27 04:00:14;;;;;;;6.47;1.65;;;;;;;14.42;84.61;102030.63;10380193;28;20132;-79
2022/07/27 04:05:15;;;;;;;1.85;1.67;;;;;;;14.43;84.86;102019.53;10376797;28;20367;-78
2022/07/27 04:10:15;;;;;;;0.82;0.82;;;;;;;14.48;84.60;102018.94;10378695;28;20034;-78
2022/07/27 04:15:17;;;;;;;3.42;1.38;;;;;;;14.48;84.39;102023.53;10382334;28;20041;-79
2022/07/27 04:20:18;;;;;;;0.68;0.68;;;;;;;14.52;84.71;102028.47;10380245;28;20033;-78
2022/07/27 04:25:18;;;;;;;1.33;1.15;;;;;;;14.75;85.60;102028.22;10376335;28;20041;-78
2022/07/27 04:30:19;;;;;;;1.55;1.25;;;;;;;14.98;85.77;102035.31;10376829;28;20030;-78
2022/07/27 04:35:19;;;;;;;1.38;1.27;;;;;;;15.15;85.93;102038.56;10360769;28;20442;-74
2022/07/27 04:40:20;;;;;;;12.38;2.22;;;;;;;15.33;86.69;102036.16;10377335;28;20121;-70
2022/07/27 04:45:20;;;;;;;2.50;0.95;;;;;;;15.45;89.84;102039.19;10375972;28;20037;-70
2022/07/27 04:50:21;;;;;;;1.30;1.27;;;;;;;15.54;89.46;102041.53;10376087;28;20045;-70
2022/07/27 04:55:21;;;;;;;1.38;0.70;;;;;;;15.66;89.00;102047.25;10377090;28;20105;-70
2022/07/27 05:00:22;;;;;;;1.73;1.40;;;;;;;15.71;88.96;102055.72;10375774;28;20054;-70
2022/07/27 05:05:22;;;;;;;0.95;0.88;;;;;;;15.77;87.84;102054.91;10375750;28;20180;-71
2022/07/27 05:10:22;;;;;;;10.13;1.77;;;;;;;15.79;87.68;102047.34;10390619;28;20030;-72
2022/07/27 05:15:23;;;;;;;1.38;0.90;;;;;;;15.83;88.51;102057.88;10375249;28;20045;-71
2022/07/27 05:20:24;;;;;;;1.83;1.25;;;;;;;15.74;89.36;102057.19;10327972;28;20037;-79
2022/07/27 05:25:24;;;;;;;4.28;1.65;;;;;;;15.62;91.42;102066.97;10376243;28;20084;-79
2022/07/27 05:30:24;;;;;;;0.90;0.90;;;;;;;15.58;91.74;102066.53;10379930;28;20037;-79
2022/07/27 05:35:25;;;;;;;0.70;0.70;;;;;;;15.66;89.39;102069.09;10376126;28;20096;-79
2022/07/27 05:40:25;;;;;;;5.05;1.45;;;;;;;15.63;91.22;102068.66;10374822;28;20022;-79
2022/07/27 05:45:26;;;;;;;12.10;2.25;;;;;;;15.49;91.55;102084.13;10375372;28;20034;-79
2022/07/27 05:50:26;;;;;;;1.85;1.17;;;;;;;15.36;90.98;102095.81;10374607;28;20025;-80
2022/07/27 05:55:26;;;;;;;3.03;1.92;;;;;;;15.06;91.92;102090.56;10374857;28;20037;-80
2022/07/27 06:00:27;;;;;;;3.33;1.05;;;;;;;14.93;91.92;102095.91;10373998;28;20053;-79
2022/07/27 06:05:27;;;;;;;1.15;1.02;;;;;;;14.88;92.05;102101.13;10373823;28;20042;-80
2022/07/27 06:10:28;;;;;;;1.95;1.02;;;;;;;14.75;93.76;102104.56;10373729;28;20117;-79
2022/07/27 06:15:29;;;;;;;2.88;1.85;;;;;;;14.67;93.75;102110.16;10373068;28;20030;-80
2022/07/27 06:20:29;;;;;;;9.55;1.55;;;;;;;14.69;93.26;102109.97;10377613;28;20026;-80
2022/07/27 06:25:33;;;;;;;2.88;2.17;;;;;;;14.63;94.06;102111.59;10363815;28;20656;-80
2022/07/27 06:30:34;;;;;;;4.97;2.28;;;;;;;14.74;93.41;102123.84;10381786;28;20346;-80
2022/07/27 06:35:34;;;;;;;1.42;1.33;;;;;;;14.95;92.39;102120.28;10379890;28;20034;-80
2022/07/27 06:40:34;;;;;;;1.42;1.33;;;;;;;15.17;92.07;102121.09;10379312;28;20030;-80
2022/07/27 06:45:35;;;;;;;8.50;1.75;;;;;;;15.24;92.63;102124.69;10398955;28;20041;-81
2022/07/27 06:50:35;;;;;;;7.05;1.75;;;;;;;15.30;92.33;102121.19;10381417;28;20041;-80
2022/07/27 06:55:36;;;;;;;6.32;1.85;;;;;;;15.58;92.29;102116.53;10379214;28;20054;-79
2022/07/27 07:00:36;;;;;;;4.95;1.65;;;;;;;15.93;92.42;102123.91;10379764;28;20037;-79
2022/07/27 07:05:44;;;;;;;3.28;2.45;;;;;;;16.51;91.86;102116.09;10380317;28;20065;-79
2022/07/27 07:10:44;;;;;;;2.80;2.17;;;;;;;17.19;91.90;102118.69;10379008;28;20485;-79
2022/07/27 07:15:45;;;;;;;1.92;1.83;;;;;;;17.91;91.45;102116.03;10378245;28;20068;-80
2022/07/27 07:20:45;;;;;;;3.75;1.70;;;;;;;19.04;90.09;102124.44;10384010;28;20029;-78
2022/07/27 07:25:46;;;;;;;1.08;1.00;;;;;;;19.28;87.78;102115.34;10390308;28;20034;-80
2022/07/27 07:30:47;;;;;;;5.85;1.58;;;;;;;19.80;85.91;102125.19;10378977;28;20034;-80
2022/07/27 07:35:47;;;;;;;1.17;1.17;;;;;;;22.00;81.44;102129.72;10379247;28;20553;-80
2022/07/27 07:40:48;;;;;;;2.78;1.50;;;;;;;22.95;78.22;102136.53;10377141;28;20043;-80
2022/07/27 07:45:48;;;;;;;2.47;1.58;;;;;;;23.58;77.50;102136.38;10378938;28;20373;-80
2022/07/27 07:50:49;;;;;;;2.25;1.48;;;;;;;23.83;75.49;102134.00;10377469;28;20026;-80
2022/07/27 07:55:54;;;;;;;1.98;1.77;;;;;;;21.82;75.21;102135.41;10376136;28;20030;-81
2022/07/27 08:00:55;;;;;;;2.47;1.48;;;;;;;20.56;76.69;102135.66;10402066;28;20046;-80
2022/07/27 08:05:55;;;;;;;5.25;0.98;;;;;;;22.62;76.38;102125.41;10376427;28;20069;-80
2022/07/27 08:10:56;;;;;;;2.40;1.02;;;;;;;23.54;74.19;102132.47;10376130;28;20030;-80
2022/07/27 08:15:56;;;;;;;5.22;1.50;;;;;;;21.86;74.39;102132.97;10376009;28;20461;-80
2022/07/27 08:20:57;;;;;;;1.75;1.60;;;;;;;20.67;77.69;102143.09;10376751;28;20026;-80
2022/07/27 08:25:57;;;;;;;2.78;1.90;;;;;;;20.02;76.30;102145.66;10377188;28;20466;-80
2022/07/27 08:30:57;;;;;;;4.40;1.20;;;;;;;19.88;76.98;102136.72;10376583;28;20057;-80
2022/07/27 08:35:58;;;;;;;1.25;1.15;;;;;;;19.80;77.54;102156.25;10375930;28;20076;-80
2022/07/27 08:40:58;;;;;;;1.48;1.23;;;;;;;20.05;76.72;102152.59;10375983;28;20022;-80
2022/07/27 08:46:00;;;;;;;3.55;1.50;;;;;;;20.61;76.11;102154.19;10358290;28;20057;-81
2022/07/27 08:51:00;;;;;;;5.63;1.63;;;;;;;22.82;69.54;102136.84;10374870;28;20076;-81
2022/07/27 08:56:00;;;;;;;3.85;1.55;;;;;;;24.30;58.14;102136.25;10376099;28;20535;-81
2022/07/27 09:01:01;;;;;;;1.63;1.48;;;;;;;25.83;56.33;102139.50;10374230;28;20045;-80
2022/07/27 09:06:03;;;;;;;2.70;0.57;;;;;;;25.81;56.14;102150.00;10375596;28;20050;-81
2022/07/27 09:11:14;;;;;;;1.17;1.17;;;;;;;25.88;55.81;102141.47;10375650;28;20437;-81
2022/07/27 09:16:14;;;;;;;0.70;0.70;;;;;;;23.36;52.76;102139.13;10387967;28;20076;-81
2022/07/27 09:21:18;;;;;;;7.13;1.55;;;;;;;23.30;56.44;102138.22;10376077;28;20033;-81
2022/07/27 09:26:21;;;;;;;1.98;1.40;;;;;;;23.66;55.79;102144.25;10376402;28;20030;-81
2022/07/27 09:31:21;;;;;;;1.02;1.00;;;;;;;22.60;52.28;102135.88;10375208;28;20034;-80
2022/07/27 09:36:22;;;;;;;7.80;1.00;;;;;;;24.27;55.71;102134.00;10376965;28;20034;-81
2022/07/27 09:41:23;;;;;;;3.70;1.45;;;;;;;26.43;51.00;102134.44;10376751;28;20029;-81
2022/07/27 09:46:31;;;;;;;1.02;0.98;;;;;;;27.16;47.66;102133.44;10373979;28;20036;-81
2022/07/27 09:51:31;;;;;;;0.77;0.77;;;;;;;25.00;54.42;102133.63;10374424;28;20037;-82
2022/07/27 09:56:32;;;;;;;1.73;1.63;;;;;;;23.94;59.33;102128.63;10379898;28;20049;-81
2022/07/27 10:01:33;;;;;;;2.38;1.25;;;;;;;25.28;57.09;102127.78;10381343;28;20141;-80
2022/07/27 10:06:34;;;;;;;4.18;1.35;;;;;;;24.44;59.49;102135.84;10381545;28;20084;-80
2022/07/27 10:11:35;;;;;;;3.30;1.10;;;;;;;26.20;56.02;102119.09;10382927;28;20088;-81
2022/07/27 10:16:35;;;;;;;1.15;1.15;;;;;;;27.27;49.82;102122.00;10382907;28;20060;-81
2022/07/27 10:21:36;;;;;;;1.13;1.13;;;;;;;27.50;49.48;102108.59;10348463;28;20169;-81
2022/07/27 10:26:41;;;;;;;1.45;1.20;;;;;;;28.62;46.38;102122.03;10380775;28;20029;-81
2022/07/27 10:31:53;;;;;;;2.63;1.40;;;;;;;29.11;46.44;102120.25;10395984;28;20061;-81
2022/07/27 10:36:54;;;;;;;2.70;1.10;;;;;;;29.53;45.47;102115.91;10381251;28;20373;-81
2022/07/27 10:42:36;;;;;;;1.27;1.27;;;;;;;29.28;46.22;102126.19;10381221;28;20037;-81
2022/07/27 10:47:39;;;;;;;5.35;1.60;;;;;;;29.35;44.54;102126.69;10374599;28;20072;-81
2022/07/27 10:52:43;;;;;;;2.20;1.33;;;;;;;28.66;48.58;102119.47;10379165;28;20122;-81
2022/07/27 10:57:43;;;;;;;3.70;1.48;;;;;;;27.47;49.81;102120.28;10380197;28;20034;-79
2022/07/27 11:02:45;;;;;;;1.60;1.00;;;;;;;26.01;53.08;102138.19;10378659;28;20045;-81
2022/07/27 11:07:45;;;;;;;1.48;1.38;;;;;;;25.16;54.05;102135.44;10379411;28;20037;-79
2022/07/27 11:12:46;;;;;;;1.03;0.93;;;;;;;25.68;53.76;102122.72;10362000;28;20092;-80
2022/07/27 11:17:49;;;;;;;1.35;1.25;;;;;;;26.95;50.67;102121.44;10361875;28;20274;-81
2022/07/27 11:22:49;;;;;;;3.88;1.00;;;;;;;26.76;51.20;102122.00;10377794;28;20029;-80
2022/07/27 11:27:50;;;;;;;1.80;1.17;;;;;;;27.70;49.55;102118.84;10379068;28;20092;-81
2022/07/27 11:32:50;;;;;;;0.98;0.98;;;;;;;29.72;44.49;102116.00;10378918;28;20761;-80
2022/07/27 11:38:02;;;;;;;1.15;1.05;;;;;;;29.14;42.52;102108.50;10377391;28;20040;-80
2022/07/27 11:43:02;;;;;;;1.42;1.17;;;;;;;26.96;47.86;102101.69;10361627;28;20450;-81
2022/07/27 11:48:04;;;;;;;3.92;1.27;;;;;;;25.62;51.26;102113.56;10387681;28;20038;-80
2022/07/27 11:53:05;;;;;;;0.60;0.60;;;;;;;25.01;52.50;102122.25;10362003;28;20034;-80
2022/07/27 11:58:05;;;;;;;2.30;1.15;;;;;;;24.79;53.31;102122.38;10380177;28;20034;-81
2022/07/27 12:03:06;;;;;;;3.40;0.97;;;;;;;24.36;54.45;102112.22;10382268;28;20053;-80
2022/07/27 12:08:06;;;;;;;1.33;0.98;;;;;;;24.33;54.41;102113.56;10379065;28;20329;-81
2022/07/27 12:13:06;;;;;;;0.93;0.93;;;;;;;24.41;53.87;102111.41;10378314;28;20457;-80
2022/07/27 12:18:07;;;;;;;1.55;1.38;;;;;;;24.55;45.81;102112.72;10376359;28;20048;-80
2022/07/27 12:23:07;;;;;;;1.02;1.02;;;;;;;26.86;45.71;102107.25;10376095;28;20072;-80
2022/07/27 12:28:11;;;;;;;0.95;0.88;;;;;;;26.09;43.95;102107.13;10386279;28;20120;-80
2022/07/27 12:33:24;;;;;;;2.47;1.27;;;;;;;26.35;45.88;102101.63;10375974;28;20034;-80
2022/07/27 12:38:26;;;;;;;1.17;1.00;;;;;;;27.35;44.05;102106.69;10378760;28;20026;-80
2022/07/27 12:43:27;;;;;;;0.93;0.93;;;;;;;27.23;44.57;102095.03;10378089;28;20034;-81
2022/07/27 12:48:27;;;;;;;6.00;1.20;;;;;;;28.19;41.94;102090.22;10376100;28;20046;-80
2022/07/27 12:53:28;;;;;;;3.05;1.60;;;;;;;28.71;42.23;102089.59;10358687;28;20061;-80
2022/07/27 12:58:28;;;;;;;2.72;0.70;;;;;;;27.47;41.12;102079.41;10375870;28;20026;-80
2022/07/27 13:03:29;;;;;;;4.28;2.15;;;;;;;26.13;47.13;102080.50;10386384;28;20050;-81
2022/07/27 13:08:29;;;;;;;0.82;0.80;;;;;;;25.14;45.57;102082.19;10379098;28;20038;-80
2022/07/27 13:13:29;;;;;;;0.67;0.67;;;;;;;24.24;46.21;102075.53;10375893;28;20064;-79
2022/07/27 13:18:30;;;;;;;1.90;1.60;;;;;;;23.57;48.17;102079.41;10374616;28;20325;-80
2022/07/27 13:23:30;;;;;;;1.20;1.20;;;;;;;23.20;47.99;102067.03;10374932;28;20044;-80
2022/07/27 13:28:31;;;;;;;1.15;1.10;;;;;;;23.13;47.83;102077.44;10378319;28;20040;-80
2022/07/27 13:33:31;;;;;;;3.30;1.27;;;;;;;22.79;46.84;102075.75;10385227;28;20033;-80
2022/07/27 13:38:32;;;;;;;3.92;1.10;;;;;;;22.48;47.68;102078.81;10383600;28;20492;-79
2022/07/27 13:43:32;;;;;;;1.40;1.30;;;;;;;22.41;47.29;102072.59;10383003;28;20026;-80
2022/07/27 13:48:33;;;;;;;3.53;1.45;;;;;;;22.50;47.16;102068.34;10384394;28;20458;-80
2022/07/27 13:53:33;;;;;;;1.55;1.45;;;;;;;22.37;47.00;102057.63;10381372;28;20033;-80
2022/07/27 13:58:34;;;;;;;8.18;1.90;;;;;;;22.77;46.51;102055.81;10383355;28;20338;-81
2022/07/27 14:03:34;;;;;;;3.13;2.13;;;;;;;24.66;45.33;102053.53;10383647;28;20061;-80
2022/07/27 14:08:35;;;;;;;5.10;1.23;;;;;;;25.29;44.23;102045.41;10381536;28;20042;-80
2022/07/27 14:13:35;;;;;;;4.88;1.45;;;;;;;23.54;43.21;102055.03;10381057;28;20038;-80
2022/07/27 14:18:36;;;;;;;3.60;1.58;;;;;;;22.49;46.09;102049.28;10388733;28;20441;-80
2022/07/27 14:23:36;;;;;;;4.47;1.73;;;;;;;23.47;45.79;102060.75;10396465;28;20029;-80
2022/07/27 14:28:36;;;;;;;1.08;1.08;;;;;;;23.90;45.38;102057.19;10382228;28;20069;-80
2022/07/27 14:33:38;;;;;;;1.67;1.58;;;;;;;24.82;45.18;102048.97;10380839;28;20076;-80
2022/07/27 14:38:39;;;;;;;0.88;0.88;;;;;;;25.11;44.79;102038.38;10381055;28;20026;-80
2022/07/27 14:43:39;;;;;;;1.42;1.25;;;;;;;24.28;45.26;102037.94;10378658;28;20106;-80
2022/07/27 14:48:39;;;;;;;2.03;1.30;;;;;;;23.90;45.89;102042.53;10380695;28;20420;-79
2022/07/27 14:53:40;;;;;;;1.67;1.58;;;;;;;24.82;46.62;102041.50;10380017;28;20033;-80
2022/07/27 14:58:40;;;;;;;1.80;1.17;;;;;;;24.41;46.60;102037.56;10394916;28;20375;-80
2022/07/27 15:03:41;;;;;;;6.45;1.42;;;;;;;24.40;47.17;102043.31;10391176;28;20046;-80
2022/07/27 15:08:41;;;;;;;1.40;1.30;;;;;;;23.49;47.30;102033.72;10380565;28;20046;-80
2022/07/27 15:13:42;;;;;;;0.93;0.93;;;;;;;23.90;46.55;102029.53;10378865;28;20418;-80
2022/07/27 15:18:42;;;;;;;0.95;0.95;;;;;;;24.05;47.18;102028.84;10379119;28;20038;-80
2022/07/27 15:23:43;;;;;;;8.07;1.85;;;;;;;24.26;47.09;102032.66;10378261;28;20034;-80
2022/07/27 15:28:43;;;;;;;2.53;1.20;;;;;;;23.77;45.52;102021.66;10378904;28;20033;-80
2022/07/27 15:33:44;;;;;;;2.50;1.45;;;;;;;23.92;45.91;102031.19;10386528;28;20037;-80
2022/07/27 15:38:44;;;;;;;0.90;0.90;;;;;;;24.03;46.60;102013.63;10387339;28;20026;-80
2022/07/27 15:43:44;;;;;;;2.75;1.60;;;;;;;23.73;45.55;102020.47;10380136;28;20366;-80
2022/07/27 15:48:45;;;;;;;1.40;1.35;;;;;;;23.65;44.46;102021.75;10376640;28;20046;-80
2022/07/27 15:53:45;;;;;;;1.42;0.93;;;;;;;23.12;45.99;102011.38;10378906;28;20080;-80
2022/07/27 15:58:45;;;;;;;1.10;1.10;;;;;;;23.19;47.21;102014.78;10378104;28;20026;-80
2022/07/27 16:03:46;;;;;;;3.87;1.30;;;;;;;23.18;46.34;102002.88;10377807;28;20662;-80
2022/07/27 16:08:47;;;;;;;1.65;0.85;;;;;;;23.57;47.22;102000.06;10375786;28;20269;-80
2022/07/27 16:13:47;;;;;;;5.30;1.42;;;;;;;23.71;46.86;101992.25;10376360;28;20512;-81
2022/07/27 16:18:49;;;;;;;1.13;0.98;;;;;;;23.72;46.68;101988.38;10377329;28;20478;-80
2022/07/27 16:23:51;;;;;;;3.20;1.88;;;;;;;23.23;47.17;101984.69;10377189;28;20029;-80
2022/07/27 16:28:51;;;;;;;2.13;1.42;;;;;;;22.94;46.42;101994.00;10359313;28;20488;-80
2022/07/27 16:33:53;;;;;;;8.00;1.20;;;;;;;22.38;47.52;101993.06;10375015;28;20038;-80
2022/07/27 16:38:53;;;;;;;2.45;1.65;;;;;;;21.94;48.10;102003.00;10377040;28;20117;-79
2022/07/27 16:43:54;;;;;;;1.30;0.98;;;;;;;21.41;48.53;101990.34;10375723;28;20026;-80
2022/07/27 16:48:54;;;;;;;1.42;1.35;;;;;;;21.03;49.30;101987.03;10377518;28;20034;-80
2022/07/27 16:53:54;;;;;;;2.17;1.10;;;;;;;20.72;49.98;101991.00;10385083;28;20172;-80
2022/07/27 16:58:55;;;;;;;7.80;1.15;;;;;;;20.36;51.61;101981.84;10377081;28;20484;-79
2022/07/27 17:03:55;;;;;;;0.85;0.85;;;;;;;20.06;51.96;101979.13;10374553;28;20081;-79
2022/07/27 17:08:56;;;;;;;6.65;1.58;;;;;;;19.98;52.84;101979.47;10376146;28;20397;-80
2022/07/27 17:13:56;;;;;;;1.75;1.05;;;;;;;19.86;54.04;101973.09;10376089;28;20034;-80
2022/07/27 17:18:56;;;;;;;1.42;1.30;;;;;;;19.90;53.02;101980.63;10374607;28;20030;-80
2022/07/27 17:23:57;;;;;;;1.67;1.25;;;;;;;19.91;52.27;101975.97;10374759;28;20453;-79
2022/07/27 17:28:57;;;;;;;1.20;1.15;;;;;;;19.80;53.25;101971.28;10367953;28;20038;-81
2022/07/27 17:33:58;;;;;;;1.40;1.30;;;;;;;19.71;54.59;101966.09;10374848;28;20061;-79
2022/07/27 17:38:59;;;;;;;1.58;1.48;;;;;;;19.96;53.59;101965.13;10375755;28;20373;-79
2022/07/27 17:43:59;;;;;;;5.43;1.45;;;;;;;20.20;54.27;101961.34;10374330;28;20160;-80
2022/07/27 17:49:00;;;;;;;1.83;1.60;;;;;;;20.24;53.97;101956.22;10373642;28;20088;-80
2022/07/27 17:54:02;;;;;;;0.85;0.85;;;;;;;20.06;53.40;101965.38;10374675;28;20485;-79
2022/07/27 17:59:02;;;;;;;1.98;1.15;;;;;;;19.96;53.45;101965.13;10373876;28;20038;-80
2022/07/27 18:04:03;;;;;;;0.90;0.90;;;;;;;19.78;54.20;101973.41;10378012;28;20053;-80
2022/07/27 18:09:05;;;;;;;1.95;1.08;;;;;;;19.51;54.20;101968.25;10386951;28;20438;-80
2022/07/27 18:14:06;;;;;;;3.47;1.98;;;;;;;19.27;54.90;101975.50;10375318;28;20036;-80
2022/07/27 18:19:07;;;;;;;2.30;1.05;;;;;;;18.93;56.34;101963.22;10383087;28;20059;-79
2022/07/27 18:24:07;;;;;;;3.67;1.60;;;;;;;18.67;56.56;101972.53;10380844;28;20068;-79
2022/07/27 18:29:08;;;;;;;1.48;1.33;;;;;;;18.40;57.52;101978.22;10381731;28;20449;-79
2022/07/27 18:34:08;;;;;;;1.63;1.52;;;;;;;18.20;57.74;101986.63;10381415;28;20053;-77
2022/07/27 18:39:09;;;;;;;0.80;0.77;;;;;;;18.08;58.19;101988.38;10381001;28;20034;-69
2022/07/27 18:44:09;;;;;;;2.05;0.98;;;;;;;17.90;59.42;101989.16;10378747;28;20034;-69
2022/07/27 18:49:10;;;;;;;1.17;1.08;;;;;;;17.80;59.10;101994.22;10379908;28;20038;-68
2022/07/27 18:54:10;;;;;;;3.05;0.77;;;;;;;17.63;60.27;101985.66;10380216;28;20037;-68
2022/07/27 18:59:10;;;;;;;0.82;0.82;;;;;;;17.52;60.14;101991.84;10380315;28;20045;-71
2022/07/27 19:04:11;;;;;;;3.50;1.02;;;;;;;17.47;58.62;102005.31;10379322;28;20034;-71
2022/07/27 19:09:11;;;;;;;1.08;0.98;;;;;;;17.37;58.71;102011.25;10379766;28;20128;-69
2022/07/27 19:14:12;;;;;;;0.93;0.93;;;;;;;17.22;58.87;102011.50;10378300;28;20033;-72
2022/07/27 19:19:12;;;;;;;1.83;0.85;;;;;;;17.10;58.28;102008.59;10381067;28;20030;-70
2022/07/27 19:24:13;;;;;;;1.38;1.25;;;;;;;17.00;59.76;102005.44;10378113;28;20045;-70
2022/07/27 19:29:16;;;;;;;1.00;1.00;;;;;;;16.89;59.82;102008.84;10378305;28;20408;-69
2022/07/27 19:34:16;;;;;;;6.43;1.58;;;;;;;16.73;61.58;102010.09;10377625;28;20480;-70
2022/07/27 19:39:16;;;;;;;5.05;1.00;;;;;;;16.60;61.93;102010.09;10376934;28;20026;-69
2022/07/27 19:44:17;;;;;;;1.13;1.05;;;;;;;16.50;61.02;102010.50;10377899;28;20030;-75
2022/07/27 19:49:17;;;;;;;0.68;0.68;;;;;;;16.38;60.40;102021.22;10378234;28;20118;-73
2022/07/27 19:54:18;;;;;;;1.67;1.58;;;;;;;16.27;59.66;102019.97;10377232;28;20347;-72
2022/07/27 19:59:19;;;;;;;3.63;1.20;;;;;;;16.13;59.82;102020.13;10379139;28;20033;-71
2022/07/27 20:04:19;;;;;;;3.22;1.20;;;;;;;16.02;60.97;102025.16;10377141;28;20029;-72
2022/07/27 20:09:19;;;;;;;2.22;1.65;;;;;;;15.96;60.47;102031.44;10376093;28;20036;-72
2022/07/27 20:14:21;;;;;;;0.88;0.82;;;;;;;15.87;60.93;102024.47;10377082;28;20469;-73
2022/07/27 20:19:22;;;;;;;0.98;0.98;;;;;;;15.86;61.29;102033.72;10376888;28;20527;-73
2022/07/27 20:24:22;;;;;;;1.63;1.42;;;;;;;15.79;61.60;102039.16;10377327;28;20022;-73
2022/07/27 20:29:22;;;;;;;7.72;1.13;;;;;;;15.70;65.04;102028.63;10375520;28;20026;-73
2022/07/27 20:34:23;;;;;;;0.90;0.90;;;;;;;15.66;63.95;102024.56;10376653;28;20026;-73
2022/07/27 20:39:24;;;;;;;0.80;0.80;;;;;;;15.62;65.62;102029.59;10379125;28;20376;-73
2022/07/27 20:44:26;;;;;;;2.03;0.95;;;;;;;15.62;65.57;102035.06;10376116;28;20026;-73
2022/07/27 20:49:26;;;;;;;1.23;1.13;;;;;;;15.58;64.72;102040.09;10376136;28;20493;-73
2022/07/27 20:54:27;;;;;;;1.48;1.17;;;;;;;15.55;65.68;102034.19;10376051;28;20054;-73
2022/07/27 20:59:27;;;;;;;1.35;1.25;;;;;;;15.51;66.62;102039.22;10375551;28;20057;-73
2022/07/27 21:04:28;;;;;;;5.47;1.83;;;;;;;15.49;66.79;102038.56;10376156;28;20112;-73
2022/07/27 21:09:28;;;;;;;4.68;1.42;;;;;;;15.46;66.27;102035.41;10374630;28;20447;-73
2022/07/27 21:14:28;;;;;;;2.15;1.42;;;;;;;15.44;67.97;102042.94;10376042;28;20036;-73
2022/07/27 21:19:29;;;;;;;1.20;1.10;;;;;;;15.42;67.14;102034.97;10375168;28;20037;-73
2022/07/27 21:24:29;;;;;;;5.50;2.42;;;;;;;15.38;67.35;102039.16;10375743;28;20330;-79
2022/07/27 21:29:30;;;;;;;6.30;2.17;;;;;;;15.31;67.97;102043.72;10375036;28;20480;-80
2022/07/27 21:34:30;;;;;;;3.85;2.20;;;;;;;15.24;68.56;102045.56;10374591;28;20112;-80
2022/07/27 21:39:30;;;;;;;5.50;1.80;;;;;;;15.21;71.13;102045.97;10374922;28;20512;-78
2022/07/27 21:44:31;;;;;;;1.48;1.33;;;;;;;15.15;70.46;102046.75;10374655;28;20111;-79
2022/07/27 21:49:31;;;;;;;4.10;1.52;;;;;;;15.09;68.63;102049.25;10376775;28;20046;-78
2022/07/27 21:54:32;;;;;;;2.83;1.85;;;;;;;15.04;69.62;102043.53;10385329;28;20034;-78
2022/07/27 21:59:32;;;;;;;1.75;1.58;;;;;;;15.01;72.33;102043.09;10382502;28;20053;-78
2022/07/27 22:04:32;;;;;;;5.45;1.95;;;;;;;14.94;71.17;102037.59;10382294;28;20037;-79
2022/07/27 22:09:33;;;;;;;1.35;1.00;;;;;;;14.93;72.93;102035.91;10380238;28;20125;-79
2022/07/27 22:14:33;;;;;;;3.22;1.17;;;;;;;14.89;72.13;102045.53;10380623;28;20396;-78
2022/07/27 22:19:34;;;;;;;1.55;1.45;;;;;;;14.92;71.70;102039.69;10381614;28;20042;-78
2022/07/27 22:24:34;;;;;;;7.15;1.90;;;;;;;14.93;72.56;102056.88;10382266;28;20061;-78
2022/07/27 22:29:34;;;;;;;1.27;1.17;;;;;;;14.93;72.15;102045.97;10381588;28;20053;-79
2022/07/27 22:34:35;;;;;;;1.98;1.60;;;;;;;14.94;73.58;102040.34;10396654;28;20509;-77
2022/07/27 22:39:35;;;;;;;1.10;1.10;;;;;;;14.92;75.84;102044.28;10381019;28;20038;-78
2022/07/27 22:44:36;;;;;;;4.55;1.67;;;;;;;15.01;74.81;102046.66;10380999;28;20030;-78
2022/07/27 22:49:37;;;;;;;3.05;1.55;;;;;;;15.00;76.08;102041.44;10379078;28;20176;-79
2022/07/27 22:54:37;;;;;;;3.33;1.30;;;;;;;15.03;75.20;102043.75;10379115;28;20038;-79
2022/07/27 22:59:38;;;;;;;4.03;1.33;;;;;;;14.99;75.97;102032.38;10380043;28;20044;-78
2022/07/27 23:04:38;;;;;;;1.83;1.27;;;;;;;15.02;75.15;102042.88;10379612;28;20038;-78
2022/07/27 23:09:39;;;;;;;2.17;1.10;;;;;;;15.02;73.91;102040.16;10385290;28;20037;-78